Time;durP1;ratioP1;P1;durP2;ratioP2;P2;SDS_P1;SDS_P2;PMS_P1;PMS_P2;Temp;Humidity;BMP_temperature;BMP_pressure;BME280_temperature;BME280_humidity;BME280_pressure;Samples;Min_cycle;Max_cycle;Signal;HPM_P1;HPM_P2
2022/08/22 00:02:18;;;;;;;0.00;0.00;;;;;;;16.38;76.41;100423.53;4953906;28;20257;-73
2022/08/22 00:04:57;;;;;;;0.00;0.00;;;;;;;16.33;76.66;100430.06;4953813;28;20170;-73
2022/08/22 00:07:22;;;;;;;0.47;0.47;;;;;;;16.26;77.19;100427.13;4953783;28;20183;-73
2022/08/22 00:10:15;;;;;;;0.00;0.00;;;;;;;16.20;77.46;100425.75;4954235;28;20162;-72
2022/08/22 00:12:59;;;;;;;0.77;0.77;;;;;;;16.15;78.01;100428.75;4953343;28;20549;-73
2022/08/22 00:15:41;;;;;;;0.30;0.30;;;;;;;16.14;77.96;100432.66;4953533;28;20182;-73
2022/08/22 00:18:16;;;;;;;0.27;0.27;;;;;;;16.14;78.25;100429.91;4953475;28;20181;-73
2022/08/22 00:20:51;;;;;;;0.10;0.10;;;;;;;16.06;78.82;100434.44;4953458;28;20166;-73
2022/08/22 00:23:29;;;;;;;0.17;0.17;;;;;;;16.03;79.23;100437.84;4952980;28;20182;-72
2022/08/22 00:26:02;;;;;;;0.10;0.10;;;;;;;15.96;80.02;100437.66;4953396;28;20888;-72
2022/08/22 00:28:37;;;;;;;0.83;0.63;;;;;;;15.87;80.51;100429.50;4953474;28;20680;-72
2022/08/22 00:31:17;;;;;;;0.10;0.10;;;;;;;15.77;81.76;100433.56;4953753;28;20170;-73
2022/08/22 00:34:04;;;;;;;5.00;1.27;;;;;;;15.70;82.63;100430.56;4952770;28;20205;-72
2022/08/22 00:36:42;;;;;;;0.47;0.47;;;;;;;15.63;83.25;100440.59;4953034;28;20182;-72
2022/08/22 00:39:14;;;;;;;0.00;0.00;;;;;;;15.59;84.31;100439.63;4953023;28;20202;-72
2022/08/22 00:41:51;;;;;;;1.23;1.23;;;;;;;15.58;84.84;100444.31;4951948;28;20298;-72
2022/08/22 00:44:52;;;;;;;0.53;0.53;;;;;;;15.50;85.72;100436.19;4952741;28;20189;-73
2022/08/22 00:47:35;;;;;;;0.20;0.20;;;;;;;15.36;86.98;100431.03;4949783;29;20207;-72
2022/08/22 00:50:26;;;;;;;0.73;0.73;;;;;;;15.29;88.17;100431.59;4952957;28;20178;-73
2022/08/22 00:53:10;;;;;;;0.00;0.00;;;;;;;15.29;88.15;100448.09;4953013;28;20209;-73
2022/08/22 00:55:49;;;;;;;1.53;1.43;;;;;;;15.27;88.77;100439.38;4952518;28;20662;-73
2022/08/22 00:58:51;;;;;;;0.00;0.00;;;;;;;15.18;89.83;100439.47;4953025;28;20689;-73
2022/08/22 01:01:20;;;;;;;0.30;0.30;;;;;;;15.18;90.33;100433.97;4951896;29;20282;-73
2022/08/22 01:04:05;;;;;;;2.13;2.03;;;;;;;15.12;90.98;100429.84;4952815;28;20190;-72
2022/08/22 01:06:46;;;;;;;0.57;0.57;;;;;;;15.08;91.64;100431.69;4952024;29;20534;-72
2022/08/22 01:09:12;;;;;;;0.13;0.13;;;;;;;15.02;92.03;100424.78;4953151;28;20678;-73
2022/08/22 01:11:43;;;;;;;1.67;1.57;;;;;;;14.98;93.00;100429.38;4952928;28;20269;-72
2022/08/22 01:14:26;;;;;;;0.93;0.93;;;;;;;14.87;94.13;100423.50;4952599;28;20712;-72
2022/08/22 01:16:59;;;;;;;0.40;0.40;;;;;;;14.81;95.01;100427.63;4952964;28;20170;-72
2022/08/22 01:19:58;;;;;;;0.20;0.20;;;;;;;14.83;95.72;100438.28;4953263;28;20626;-73
2022/08/22 01:23:07;;;;;;;0.63;0.63;;;;;;;14.88;95.66;100432.53;4952880;28;20183;-72
2022/08/22 01:26:13;;;;;;;0.90;0.83;;;;;;;14.75;96.35;100431.72;4952397;28;20167;-73
2022/08/22 01:28:57;;;;;;;0.70;0.70;;;;;;;14.77;97.29;100442.41;4951815;29;20218;-73
2022/08/22 01:31:41;;;;;;;0.20;0.20;;;;;;;14.72;97.32;100435.16;4952913;28;20233;-72
2022/08/22 01:34:25;;;;;;;0.70;0.70;;;;;;;14.69;97.92;100432.28;4952781;28;20198;-73
2022/08/22 01:37:13;;;;;;;0.00;0.00;;;;;;;14.78;98.75;100433.00;4952787;28;20584;-72
2022/08/22 01:39:41;;;;;;;0.30;0.30;;;;;;;14.71;98.64;100433.53;4952726;28;20375;-72
2022/08/22 01:42:09;;;;;;;0.00;0.00;;;;;;;14.78;99.10;100433.81;4951362;29;20607;-72
2022/08/22 01:44:57;;;;;;;0.00;0.00;;;;;;;14.86;99.02;100441.16;4952565;28;20508;-72
2022/08/22 01:47:32;;;;;;;0.73;0.73;;;;;;;14.76;98.31;100440.78;4952716;28;20167;-72
2022/08/22 01:50:24;;;;;;;0.10;0.10;;;;;;;14.61;98.69;100423.00;4952676;28;20166;-72
2022/08/22 01:53:00;;;;;;;0.00;0.00;;;;;;;14.43;99.33;100425.03;4952569;28;20194;-72
2022/08/22 01:55:51;;;;;;;0.67;0.67;;;;;;;14.25;100.00;100424.41;4952333;28;20214;-72
2022/08/22 01:58:23;;;;;;;0.00;0.00;;;;;;;14.25;100.00;100429.09;4952776;28;20181;-72
2022/08/22 02:01:01;;;;;;;0.53;0.53;;;;;;;14.23;100.00;100426.69;4952590;28;20163;-72
2022/08/22 02:03:49;;;;;;;0.23;0.23;;;;;;;14.13;100.00;100424.34;4952228;28;20186;-72
2022/08/22 02:06:23;;;;;;;0.00;0.00;;;;;;;14.04;100.00;100423.63;4952532;29;20186;-72
2022/08/22 02:09:26;;;;;;;0.10;0.10;;;;;;;14.15;100.00;100433.03;4952520;28;20163;-72
2022/08/22 02:11:57;;;;;;;0.00;0.00;;;;;;;14.23;100.00;100429.44;4952386;28;20594;-72
2022/08/22 02:14:32;;;;;;;0.20;0.20;;;;;;;14.20;100.00;100432.88;4951048;29;20185;-72
2022/08/22 02:17:21;;;;;;;0.00;0.00;;;;;;;14.10;100.00;100427.75;4952409;28;20174;-72
2022/08/22 02:20:43;;;;;;;6.67;0.43;;;;;;;14.06;100.00;100429.59;4952476;28;20622;-73
2022/08/22 02:23:29;;;;;;;0.00;0.00;;;;;;;13.96;100.00;100422.53;4930644;29;20233;-73
2022/08/22 02:26:00;;;;;;;0.30;0.30;;;;;;;13.96;100.00;100429.97;4930685;29;20242;-72
2022/08/22 02:28:50;;;;;;;0.10;0.10;;;;;;;13.96;100.00;100421.72;4944332;28;20183;-72
2022/08/22 02:31:24;;;;;;;0.77;0.77;;;;;;;13.86;100.00;100425.66;4950979;29;20175;-72
2022/08/22 02:33:55;;;;;;;0.00;0.00;;;;;;;13.74;100.00;100428.31;4950730;29;20209;-72
2022/08/22 02:36:52;;;;;;;0.00;0.00;;;;;;;13.68;100.00;100424.97;4953150;28;20642;-73
2022/08/22 02:39:36;;;;;;;0.23;0.23;;;;;;;13.57;100.00;100415.50;4953928;29;20293;-72
2022/08/22 02:42:33;;;;;;;0.20;0.20;;;;;;;13.63;100.00;100425.19;4955900;28;20180;-73
2022/08/22 02:45:28;;;;;;;0.13;0.13;;;;;;;13.62;100.00;100437.31;4955521;28;20185;-73
2022/08/22 02:48:10;;;;;;;0.23;0.23;;;;;;;13.46;100.00;100427.22;4954284;29;20175;-72
2022/08/22 02:51:04;;;;;;;10.93;0.90;;;;;;;13.32;100.00;100432.94;4955448;28;20190;-73
2022/08/22 02:53:38;;;;;;;0.20;0.20;;;;;;;13.27;100.00;100430.38;4955212;28;20229;-72
2022/08/22 02:56:13;;;;;;;0.60;0.60;;;;;;;13.30;100.00;100425.00;4955412;28;20273;-72
2022/08/22 02:58:47;;;;;;;0.17;0.17;;;;;;;13.39;100.00;100428.53;4955418;28;20167;-72
2022/08/22 03:01:24;;;;;;;0.20;0.20;;;;;;;13.45;100.00;100436.56;4955363;28;20190;-73
2022/08/22 03:03:51;;;;;;;0.73;0.73;;;;;;;13.42;100.00;100427.06;4955121;28;20748;-72
2022/08/22 03:06:37;;;;;;;3.83;1.13;;;;;;;13.27;100.00;100430.38;4955253;28;20612;-73
2022/08/22 03:09:14;;;;;;;0.43;0.43;;;;;;;13.25;100.00;100432.63;4955217;28;20262;-73
2022/08/22 03:11:46;;;;;;;0.53;0.53;;;;;;;13.20;100.00;100435.56;4955452;28;20171;-72
2022/08/22 03:14:17;;;;;;;0.37;0.37;;;;;;;13.20;100.00;100438.31;4953690;29;20213;-73
2022/08/22 03:17:15;;;;;;;0.50;0.50;;;;;;;13.13;100.00;100429.75;4955113;28;20167;-72
2022/08/22 03:19:50;;;;;;;0.00;0.00;;;;;;;13.08;100.00;100437.03;4935540;28;20195;-73
2022/08/22 03:22:33;;;;;;;0.63;0.57;;;;;;;13.19;100.00;100433.97;4955042;28;20638;-73
2022/08/22 03:25:08;;;;;;;0.17;0.17;;;;;;;13.18;100.00;100433.16;4953470;29;20183;-73
2022/08/22 03:27:58;;;;;;;1.10;1.10;;;;;;;13.20;100.00;100432.84;4953609;29;20205;-73
2022/08/22 03:30:42;;;;;;;0.00;0.00;;;;;;;13.13;100.00;100432.50;4953592;29;20186;-73
2022/08/22 03:33:18;;;;;;;0.13;0.13;;;;;;;13.09;100.00;100424.94;4954719;28;20198;-73
2022/08/22 03:35:43;;;;;;;0.00;0.00;;;;;;;13.09;100.00;100424.13;4953451;29;20215;-73
2022/08/22 03:38:38;;;;;;;0.70;0.70;;;;;;;13.03;100.00;100425.44;4953536;29;20209;-73
2022/08/22 03:41:28;;;;;;;0.10;0.10;;;;;;;13.05;100.00;100417.69;4954309;28;20187;-73
2022/08/22 03:44:33;;;;;;;0.20;0.20;;;;;;;13.01;100.00;100425.75;4953128;29;20179;-73
2022/08/22 03:47:20;;;;;;;0.00;0.00;;;;;;;12.95;100.00;100429.81;4954396;28;20179;-72
2022/08/22 03:50:09;;;;;;;0.00;0.00;;;;;;;13.03;100.00;100442.72;4954110;29;20167;-73
2022/08/22 03:53:06;;;;;;;0.00;0.00;;;;;;;13.09;100.00;100437.84;4954564;28;20199;-73
2022/08/22 03:55:52;;;;;;;0.20;0.20;;;;;;;13.10;100.00;100433.97;4954018;29;20229;-73
2022/08/22 03:58:35;;;;;;;0.00;0.00;;;;;;;13.09;100.00;100435.91;4954250;28;20714;-73
2022/08/22 04:01:19;;;;;;;0.00;0.00;;;;;;;13.14;100.00;100439.59;4954303;28;20177;-73
2022/08/22 04:04:09;;;;;;;0.00;0.00;;;;;;;13.13;100.00;100443.47;4958930;28;20245;-73
2022/08/22 04:06:55;;;;;;;0.10;0.10;;;;;;;13.10;100.00;100451.22;4953947;29;20171;-73
2022/08/22 04:09:46;;;;;;;0.00;0.00;;;;;;;13.01;100.00;100444.16;4954052;28;20182;-73
2022/08/22 04:12:36;;;;;;;0.00;0.00;;;;;;;12.92;100.00;100446.94;4954100;29;20184;-73
2022/08/22 04:15:02;;;;;;;0.00;0.00;;;;;;;12.84;100.00;100442.25;4953796;28;20221;-73
2022/08/22 04:17:49;;;;;;;0.00;0.00;;;;;;;12.79;100.00;100456.16;4954814;28;20596;-73
2022/08/22 04:20:52;;;;;;;0.00;0.00;;;;;;;12.86;100.00;100453.69;4973207;28;20665;-73
2022/08/22 04:23:30;;;;;;;0.00;0.00;;;;;;;12.97;100.00;100457.72;4971672;28;20186;-73
2022/08/22 04:26:04;;;;;;;0.00;0.00;;;;;;;13.12;100.00;100450.88;4973100;28;20177;-73
2022/08/22 04:28:42;;;;;;;0.53;0.53;;;;;;;13.15;100.00;100452.97;4972888;28;20220;-73
2022/08/22 04:31:10;;;;;;;0.00;0.00;;;;;;;13.00;100.00;100454.31;4971950;28;20217;-73
2022/08/22 04:33:45;;;;;;;0.20;0.20;;;;;;;12.91;100.00;100453.53;4972721;28;20259;-73
2022/08/22 04:36:18;;;;;;;0.90;0.90;;;;;;;12.89;100.00;100452.28;4971715;28;20174;-73
2022/08/22 04:38:59;;;;;;;0.00;0.00;;;;;;;12.92;100.00;100457.91;4971463;28;20174;-73
2022/08/22 04:41:47;;;;;;;0.03;0.03;;;;;;;12.98;100.00;100464.00;4953937;28;20171;-73
2022/08/22 04:44:14;;;;;;;11.47;0.43;;;;;;;12.87;100.00;100468.22;4953537;28;20182;-73
2022/08/22 04:46:58;;;;;;;0.37;0.30;;;;;;;12.80;100.00;100471.47;4953748;28;20582;-73
2022/08/22 04:49:24;;;;;;;0.00;0.00;;;;;;;12.85;100.00;100475.97;4968156;28;20184;-73
2022/08/22 04:52:04;;;;;;;0.00;0.00;;;;;;;12.98;100.00;100473.03;4968162;28;20182;-73
2022/08/22 04:54:56;;;;;;;0.00;0.00;;;;;;;13.02;100.00;100482.25;4953198;28;20198;-74
2022/08/22 04:57:31;;;;;;;0.00;0.00;;;;;;;13.00;100.00;100479.00;4953309;28;20178;-73
2022/08/22 05:00:05;;;;;;;0.57;0.57;;;;;;;12.93;100.00;100477.91;4953188;28;20612;-73
2022/08/22 05:02:35;;;;;;;0.20;0.20;;;;;;;13.00;100.00;100475.44;4953247;28;20206;-73
2022/08/22 05:05:07;;;;;;;0.00;0.00;;;;;;;13.08;100.00;100486.41;4953085;28;20163;-73
2022/08/22 05:07:38;;;;;;;0.00;0.00;;;;;;;13.21;100.00;100486.56;4953091;28;20264;-73
2022/08/22 05:10:24;;;;;;;0.10;0.10;;;;;;;13.24;100.00;100481.22;4953187;28;20254;-73
2022/08/22 05:12:59;;;;;;;0.00;0.00;;;;;;;13.29;100.00;100491.19;4969108;28;20540;-73
2022/08/22 05:15:32;;;;;;;0.00;0.00;;;;;;;13.34;100.00;100502.03;4958693;28;20182;-73
2022/08/22 05:18:06;;;;;;;0.27;0.27;;;;;;;13.44;100.00;100504.38;4953576;28;20218;-73
2022/08/22 05:20:33;;;;;;;0.10;0.10;;;;;;;13.53;100.00;100510.66;4967832;28;20362;-73
2022/08/22 05:23:05;;;;;;;0.10;0.10;;;;;;;13.63;100.00;100502.06;4971613;28;20173;-73
2022/08/22 05:25:34;;;;;;;7.13;1.80;;;;;;;13.74;100.00;100504.41;4972996;28;20181;-73
2022/08/22 05:28:24;;;;;;;1.80;1.50;;;;;;;13.82;100.00;100509.06;4972543;28;20174;-73
2022/08/22 05:30:50;;;;;;;0.00;0.00;;;;;;;13.94;100.00;100512.72;4972333;28;20166;-73
2022/08/22 05:33:24;;;;;;;0.00;0.00;;;;;;;14.03;100.00;100512.66;4972081;28;20205;-73
2022/08/22 05:35:56;;;;;;;0.00;0.00;;;;;;;14.16;100.00;100508.03;4972343;28;20270;-78
2022/08/22 05:38:28;;;;;;;0.00;0.00;;;;;;;14.27;100.00;100512.81;4972056;28;20630;-73
2022/08/22 05:41:00;;;;;;;0.00;0.00;;;;;;;14.41;100.00;100520.78;4972263;28;20182;-73
2022/08/22 05:43:27;;;;;;;0.00;0.00;;;;;;;14.50;100.00;100520.78;4972223;28;20245;-73
2022/08/22 05:45:56;;;;;;;0.00;0.00;;;;;;;14.60;100.00;100520.34;4972460;28;20174;-73
2022/08/22 05:48:36;;;;;;;0.00;0.00;;;;;;;14.69;100.00;100514.78;4972010;28;20174;-73
2022/08/22 05:51:20;;;;;;;0.00;0.00;;;;;;;14.71;100.00;100513.28;4972126;28;20622;-73
2022/08/22 05:53:50;;;;;;;0.00;0.00;;;;;;;14.69;100.00;100512.03;4970404;28;20217;-73
2022/08/22 05:56:34;;;;;;;0.00;0.00;;;;;;;14.86;100.00;100511.88;4971843;28;20189;-73
2022/08/22 05:59:21;;;;;;;0.00;0.00;;;;;;;15.00;100.00;100522.56;4971898;28;20209;-74
2022/08/22 06:01:59;;;;;;;0.00;0.00;;;;;;;15.10;100.00;100522.97;4972029;28;20521;-74
2022/08/22 06:04:50;;;;;;;0.00;0.00;;;;;;;15.17;99.38;100525.13;4971845;28;20170;-74
2022/08/22 06:07:22;;;;;;;0.00;0.00;;;;;;;15.27;99.91;100534.94;4971877;28;20162;-73
2022/08/22 06:09:47;;;;;;;0.00;0.00;;;;;;;15.35;98.63;100534.03;4971923;28;20197;-73
2022/08/22 06:12:21;;;;;;;0.17;0.17;;;;;;;15.42;96.72;100537.00;4974210;28;20209;-73
2022/08/22 06:15:03;;;;;;;0.10;0.10;;;;;;;15.52;96.08;100528.31;4975362;28;20170;-73
2022/08/22 06:17:40;;;;;;;0.00;0.00;;;;;;;15.57;97.32;100533.59;4975400;28;20217;-73
2022/08/22 06:20:08;;;;;;;0.00;0.00;;;;;;;15.66;98.80;100534.34;4975433;28;20174;-73
2022/08/22 06:22:42;;;;;;;0.00;0.00;;;;;;;15.73;98.09;100531.00;4975427;28;20175;-73
2022/08/22 06:25:13;;;;;;;0.00;0.00;;;;;;;15.80;97.79;100541.47;4973982;28;20174;-73
2022/08/22 06:27:39;;;;;;;0.00;0.00;;;;;;;15.82;95.96;100541.91;4975338;28;20248;-74
2022/08/22 06:30:06;;;;;;;0.00;0.00;;;;;;;15.84;95.56;100550.63;4973967;28;20269;-73
2022/08/22 06:32:38;;;;;;;0.00;0.00;;;;;;;15.95;95.75;100552.59;4974993;28;20229;-73
2022/08/22 06:35:26;;;;;;;1.30;1.10;;;;;;;16.07;95.00;100551.78;4975050;28;20205;-73
2022/08/22 06:37:57;;;;;;;0.00;0.00;;;;;;;16.26;94.89;100545.69;4975054;28;20173;-73
2022/08/22 06:40:25;;;;;;;0.00;0.00;;;;;;;16.32;93.31;100544.28;4975066;28;20174;-74
2022/08/22 06:42:51;;;;;;;0.00;0.00;;;;;;;16.36;93.09;100545.22;4975119;28;20174;-74
2022/08/22 06:45:30;;;;;;;0.00;0.00;;;;;;;16.40;92.56;100548.88;4973764;28;20648;-73
2022/08/22 06:48:04;;;;;;;0.00;0.00;;;;;;;16.50;92.53;100544.84;4973561;28;20178;-73
2022/08/22 06:50:34;;;;;;;0.00;0.00;;;;;;;16.56;92.73;100538.72;4975072;28;20188;-73
2022/08/22 06:53:08;;;;;;;0.00;0.00;;;;;;;16.61;92.70;100549.50;4974872;28;20284;-73
2022/08/22 06:55:39;;;;;;;0.00;0.00;;;;;;;16.61;91.41;100543.16;4973260;28;20289;-73
2022/08/22 06:58:14;;;;;;;0.00;0.00;;;;;;;16.67;90.33;100555.63;4974772;28;20626;-73
2022/08/22 07:00:42;;;;;;;0.00;0.00;;;;;;;16.79;90.81;100552.81;4974809;28;20621;-73
2022/08/22 07:03:24;;;;;;;0.00;0.00;;;;;;;16.84;90.80;100555.31;4974681;28;20182;-73
2022/08/22 07:05:53;;;;;;;0.57;0.57;;;;;;;17.02;90.02;100542.00;4974766;28;20235;-72
2022/08/22 07:08:21;;;;;;;0.00;0.00;;;;;;;17.15;88.64;100549.06;4972688;28;20190;-73
2022/08/22 07:10:56;;;;;;;0.00;0.00;;;;;;;17.18;87.66;100545.59;4972384;28;20190;-73
2022/08/22 07:13:24;;;;;;;0.00;0.00;;;;;;;17.22;87.15;100557.56;4961567;28;20217;-73
2022/08/22 07:15:56;;;;;;;0.00;0.00;;;;;;;17.30;86.40;100555.78;4959393;28;20190;-73
2022/08/22 07:18:24;;;;;;;0.50;0.50;;;;;;;17.39;86.94;100559.19;4972873;28;20185;-72
2022/08/22 07:20:56;;;;;;;0.63;0.63;;;;;;;17.42;86.96;100560.44;4972931;28;20174;-73
2022/08/22 07:23:30;;;;;;;2.97;2.47;;;;;;;17.47;86.84;100560.16;4973046;28;20296;-72
2022/08/22 07:26:20;;;;;;;0.00;0.00;;;;;;;17.54;86.68;100560.38;4974170;28;20177;-73
2022/08/22 07:28:51;;;;;;;0.00;0.00;;;;;;;17.61;86.19;100560.53;4974482;28;20626;-74
2022/08/22 07:31:38;;;;;;;0.10;0.10;;;;;;;17.73;86.21;100568.78;4969679;28;20270;-74
2022/08/22 07:34:12;;;;;;;0.00;0.00;;;;;;;17.79;85.69;100566.53;4962416;28;20237;-73
2022/08/22 07:36:44;;;;;;;0.00;0.00;;;;;;;17.86;85.63;100565.94;4953530;29;20718;-74
2022/08/22 07:39:23;;;;;;;0.00;0.00;;;;;;;17.99;84.83;100559.13;4954695;28;20171;-75
2022/08/22 07:41:56;;;;;;;0.00;0.00;;;;;;;18.17;82.73;100570.63;4959409;28;20197;-73
2022/08/22 07:44:25;;;;;;;0.00;0.00;;;;;;;18.18;81.88;100561.16;4954615;28;20190;-74
2022/08/22 07:46:51;;;;;;;0.00;0.00;;;;;;;18.20;82.19;100567.13;4953325;29;20197;-74
2022/08/22 07:49:57;;;;;;;0.00;0.00;;;;;;;18.33;83.80;100566.66;4954547;28;20659;-73
2022/08/22 07:52:24;;;;;;;0.20;0.20;;;;;;;18.58;82.62;100569.19;4954048;29;20194;-73
2022/08/22 07:55:07;;;;;;;0.00;0.00;;;;;;;18.62;77.42;100581.13;4954141;28;20197;-73
2022/08/22 07:57:41;;;;;;;0.00;0.00;;;;;;;18.88;75.72;100574.97;4953096;29;20179;-73
2022/08/22 08:00:17;;;;;;;0.00;0.00;;;;;;;18.93;72.24;100583.78;4954415;28;20174;-74
2022/08/22 08:02:50;;;;;;;0.60;0.60;;;;;;;19.11;73.05;100575.06;4954379;28;20208;-74
2022/08/22 08:05:17;;;;;;;0.00;0.00;;;;;;;19.21;71.69;100568.91;4954366;28;20206;-74
2022/08/22 08:07:44;;;;;;;0.00;0.00;;;;;;;19.47;71.55;100569.00;4954118;28;20237;-74
2022/08/22 08:10:15;;;;;;;0.37;0.37;;;;;;;19.51;70.37;100563.53;4965249;28;20221;-74
2022/08/22 08:12:47;;;;;;;0.87;0.87;;;;;;;19.66;70.99;100568.16;4969274;28;20206;-74
2022/08/22 08:15:17;;;;;;;0.63;0.63;;;;;;;19.80;69.60;100573.16;4971835;28;20281;-73
2022/08/22 08:17:46;;;;;;;0.00;0.00;;;;;;;19.78;68.69;100564.41;4973359;28;20205;-72
2022/08/22 08:20:16;;;;;;;0.00;0.00;;;;;;;19.82;68.73;100565.28;4973310;28;20260;-72
2022/08/22 08:22:44;;;;;;;0.00;0.00;;;;;;;19.88;68.63;100572.91;4971962;28;20213;-73
2022/08/22 08:25:17;;;;;;;0.00;0.00;;;;;;;19.93;68.33;100574.56;4973058;28;20174;-74
2022/08/22 08:30:35;;;;;;;0.10;0.10;;;;;;;20.21;67.10;100563.13;4969696;28;20653;-74
2022/08/22 08:33:04;;;;;;;0.00;0.00;;;;;;;20.33;67.30;100574.00;4972943;28;20256;-74
2022/08/22 08:35:34;;;;;;;0.13;0.13;;;;;;;20.42;66.08;100565.44;4970786;28;20192;-74
2022/08/22 08:38:16;;;;;;;0.23;0.23;;;;;;;20.55;66.37;100566.81;4972710;28;20181;-74
2022/08/22 08:41:09;;;;;;;0.00;0.00;;;;;;;20.71;66.43;100563.84;4953432;28;20646;-74
2022/08/22 08:44:17;;;;;;;0.00;0.00;;;;;;;20.79;66.01;100559.97;4953364;29;20171;-74
2022/08/22 08:47:01;;;;;;;0.07;0.07;;;;;;;21.01;65.26;100556.28;4912811;29;20721;-74
2022/08/22 08:49:58;;;;;;;0.10;0.10;;;;;;;21.09;63.71;100549.63;4968051;28;20193;-73
2022/08/22 08:52:57;;;;;;;0.00;0.00;;;;;;;21.08;63.62;100552.78;4958492;28;20549;-74
2022/08/22 08:55:41;;;;;;;0.00;0.00;;;;;;;21.03;63.15;100545.59;4964762;28;20204;-74
2022/08/22 08:58:34;;;;;;;0.00;0.00;;;;;;;21.15;63.18;100550.09;4972316;28;20551;-74
2022/08/22 09:01:11;;;;;;;0.00;0.00;;;;;;;21.34;61.85;100557.47;4970903;28;20187;-74
2022/08/22 09:04:05;;;;;;;0.00;0.00;;;;;;;21.55;61.05;100559.63;4971201;28;20186;-74
2022/08/22 09:06:39;;;;;;;0.00;0.00;;;;;;;21.62;61.73;100551.38;4957369;28;20617;-75
2022/08/22 09:09:11;;;;;;;0.00;0.00;;;;;;;21.83;62.07;100557.09;4972312;28;20186;-73
2022/08/22 09:11:47;;;;;;;0.00;0.00;;;;;;;22.02;58.81;100556.09;4961596;28;20191;-74
2022/08/22 09:14:44;;;;;;;0.00;0.00;;;;;;;22.06;59.48;100540.22;4963456;28;20206;-75
2022/08/22 09:17:19;;;;;;;0.20;0.10;;;;;;;22.31;58.20;100537.63;4970873;28;20622;-74
2022/08/22 09:20:08;;;;;;;4.03;0.47;;;;;;;22.38;56.56;100540.44;4971139;28;20214;-73
2022/08/22 09:23:21;;;;;;;0.00;0.00;;;;;;;22.46;56.93;100528.16;4975683;28;20662;-74
2022/08/22 09:26:02;;;;;;;0.20;0.10;;;;;;;22.52;56.27;100537.72;4973351;28;20692;-74
2022/08/22 09:28:47;;;;;;;0.00;0.00;;;;;;;22.58;55.29;100538.16;4991608;28;20174;-74
2022/08/22 09:31:26;;;;;;;34.70;4.50;;;;;;;23.00;54.08;100537.56;4991469;28;20644;-74
2022/08/22 09:34:11;;;;;;;0.00;0.00;;;;;;;22.91;53.50;100534.34;4991343;28;20232;-74
2022/08/22 09:37:03;;;;;;;0.00;0.00;;;;;;;23.01;52.64;100525.22;4992105;28;20165;-75
2022/08/22 09:39:36;;;;;;;0.07;0.07;;;;;;;23.12;54.88;100525.22;4978035;28;20182;-75
2022/08/22 09:42:28;;;;;;;0.00;0.00;;;;;;;23.30;52.18;100516.94;4972056;28;20177;-75
2022/08/22 09:45:18;;;;;;;0.00;0.00;;;;;;;23.59;50.75;100521.38;4971840;28;20661;-73
2022/08/22 09:48:11;;;;;;;0.00;0.00;;;;;;;23.56;50.29;100513.72;4975366;28;20174;-74
2022/08/22 09:51:13;;;;;;;0.00;0.00;;;;;;;23.61;50.29;100518.97;4976119;28;20576;-74
2022/08/22 09:54:16;;;;;;;0.00;0.00;;;;;;;23.84;48.82;100517.75;4973671;28;20212;-74
2022/08/22 09:56:54;;;;;;;0.10;0.10;;;;;;;23.70;50.52;100510.19;4973022;28;20192;-74
2022/08/22 10:00:12;;;;;;;0.23;0.23;;;;;;;23.81;47.53;100510.19;4974986;28;20213;-73
2022/08/22 10:02:43;;;;;;;0.17;0.17;;;;;;;23.82;46.83;100500.63;4973444;28;20196;-74
2022/08/22 10:05:11;;;;;;;0.50;0.40;;;;;;;23.94;46.45;100495.41;4973414;28;20590;-73
2022/08/22 10:07:57;;;;;;;0.63;0.63;;;;;;;23.92;47.14;100494.22;4994034;28;20169;-74
2022/08/22 10:10:47;;;;;;;0.10;0.10;;;;;;;24.10;47.14;100491.41;4995211;28;20675;-75
2022/08/22 10:13:27;;;;;;;0.00;0.00;;;;;;;24.17;47.19;100496.97;4994825;28;20279;-73
2022/08/22 10:16:29;;;;;;;0.00;0.00;;;;;;;24.27;48.61;100491.34;4994999;28;20173;-74
2022/08/22 10:19:24;;;;;;;0.00;0.00;;;;;;;24.44;48.71;100484.13;4994497;28;20178;-74
2022/08/22 10:22:11;;;;;;;0.10;0.10;;;;;;;24.46;47.15;100478.16;4994841;28;20162;-73
2022/08/22 10:25:11;;;;;;;0.00;0.00;;;;;;;24.38;45.82;100479.38;4994900;28;20185;-74
2022/08/22 10:28:16;;;;;;;0.00;0.00;;;;;;;24.46;46.10;100483.75;4994716;28;20162;-74
2022/08/22 10:30:50;;;;;;;0.07;0.07;;;;;;;24.60;47.03;100476.13;4994836;28;20171;-74
2022/08/22 10:33:18;;;;;;;0.50;0.50;;;;;;;24.79;46.25;100480.41;4994550;28;20197;-74
2022/08/22 10:35:50;;;;;;;0.00;0.00;;;;;;;24.66;45.60;100473.69;4993290;28;20181;-74
2022/08/22 10:38:23;;;;;;;0.00;0.00;;;;;;;24.80;45.89;100472.81;4994586;28;20259;-74
2022/08/22 10:41:35;;;;;;;0.10;0.10;;;;;;;24.88;46.14;100465.97;4992456;28;20193;-73
2022/08/22 10:44:19;;;;;;;0.00;0.00;;;;;;;24.80;45.47;100473.59;4956042;28;20186;-73
2022/08/22 10:46:50;;;;;;;0.00;0.00;;;;;;;24.89;45.82;100460.00;4973634;28;20190;-73
2022/08/22 10:49:26;;;;;;;0.00;0.00;;;;;;;24.91;44.95;100468.75;4974962;28;20214;-74
2022/08/22 10:52:09;;;;;;;0.67;0.63;;;;;;;24.73;44.59;100462.44;4974777;28;20221;-73
2022/08/22 10:54:44;;;;;;;0.17;0.17;;;;;;;24.78;44.95;100448.06;4973157;28;20224;-73
2022/08/22 10:57:10;;;;;;;0.00;0.00;;;;;;;24.89;44.84;100448.00;4973348;28;20548;-73
2022/08/22 10:59:42;;;;;;;0.00;0.00;;;;;;;24.63;43.53;100446.56;4975281;28;20190;-78
2022/08/22 11:02:26;;;;;;;0.10;0.10;;;;;;;24.89;43.72;100453.59;4974741;28;20182;-73
2022/08/22 11:05:24;;;;;;;0.43;0.43;;;;;;;24.93;44.04;100455.16;4974420;28;20552;-73
2022/08/22 11:08:31;;;;;;;1.40;1.33;;;;;;;25.07;43.82;100453.50;4974576;28;20654;-73
2022/08/22 11:11:15;;;;;;;0.27;0.27;;;;;;;25.00;42.96;100456.31;4974485;28;20218;-73
2022/08/22 11:14:02;;;;;;;0.03;0.03;;;;;;;25.09;43.38;100457.47;4973096;28;20579;-73
2022/08/22 11:17:01;;;;;;;0.23;0.23;;;;;;;25.14;43.02;100442.25;4974635;28;20205;-73
2022/08/22 11:19:42;;;;;;;0.00;0.00;;;;;;;24.93;43.33;100441.19;4974511;28;20209;-73
2022/08/22 11:22:32;;;;;;;0.00;0.00;;;;;;;25.15;42.43;100438.25;4974443;28;20174;-73
2022/08/22 11:25:34;;;;;;;0.70;0.70;;;;;;;25.36;42.79;100434.50;4974412;28;20237;-73
2022/08/22 11:28:22;;;;;;;0.00;0.00;;;;;;;25.72;42.82;100441.38;4977331;28;20281;-73
2022/08/22 11:31:03;;;;;;;0.00;0.00;;;;;;;25.99;41.87;100435.13;4975549;28;20245;-73
2022/08/22 11:33:40;;;;;;;0.00;0.00;;;;;;;25.85;41.30;100435.28;4974220;28;20232;-73
2022/08/22 11:36:21;;;;;;;0.00;0.00;;;;;;;25.61;40.88;100428.69;4974677;28;20184;-73
2022/08/22 11:39:09;;;;;;;0.30;0.30;;;;;;;25.72;40.54;100433.00;4973513;28;20181;-72
2022/08/22 11:41:40;;;;;;;1.13;1.03;;;;;;;25.84;40.64;100428.09;4972845;28;20660;-73
2022/08/22 11:44:35;;;;;;;0.00;0.00;;;;;;;25.53;40.58;100427.97;4973984;28;20173;-73
2022/08/22 11:47:09;;;;;;;0.00;0.00;;;;;;;25.83;41.18;100427.28;4973131;28;20193;-73
2022/08/22 11:49:54;;;;;;;0.00;0.00;;;;;;;25.77;39.72;100428.97;4972773;28;20228;-73
2022/08/22 11:53:09;;;;;;;0.27;0.27;;;;;;;26.22;39.28;100431.66;4973726;28;20178;-73
2022/08/22 11:56:06;;;;;;;0.10;0.10;;;;;;;26.56;40.38;100434.44;4973559;28;20676;-73
2022/08/22 11:58:58;;;;;;;0.00;0.00;;;;;;;26.92;39.67;100423.53;4973740;28;20182;-73
2022/08/22 12:01:49;;;;;;;0.10;0.10;;;;;;;26.90;38.92;100421.13;4973495;28;20290;-73
2022/08/22 12:04:29;;;;;;;0.00;0.00;;;;;;;26.68;39.24;100434.69;4973471;28;20182;-73
2022/08/22 12:07:14;;;;;;;0.53;0.53;;;;;;;26.41;38.11;100422.66;4971282;28;20178;-73
2022/08/22 12:10:05;;;;;;;0.00;0.00;;;;;;;26.33;39.55;100415.53;4972463;28;20221;-73
2022/08/22 12:12:44;;;;;;;0.13;0.13;;;;;;;26.37;39.35;100411.50;4966575;28;20186;-73
2022/08/22 12:15:21;;;;;;;1.23;0.37;;;;;;;26.12;39.61;100418.56;4973123;28;20182;-73
2022/08/22 12:17:52;;;;;;;0.40;0.40;;;;;;;25.94;40.23;100410.38;4973184;28;20205;-74
2022/08/22 12:20:41;;;;;;;0.00;0.00;;;;;;;26.09;40.85;100412.59;4973062;28;20660;-74
2022/08/22 12:23:19;;;;;;;0.00;0.00;;;;;;;25.51;41.42;100411.59;4973150;28;20182;-74
2022/08/22 12:25:57;;;;;;;0.00;0.00;;;;;;;25.71;41.96;100405.41;4984469;28;20398;-74
2022/08/22 12:28:40;;;;;;;0.00;0.00;;;;;;;25.87;41.44;100411.25;4976456;28;20182;-73